sensor_id;sensor_type;location;lat;lon;timestamp;temperature;humidity
19803;DHT22;66074;50.764;6.090;2023-07-31T00:02:03;18.00;99.90
19803;DHT22;66074;50.764;6.090;2023-07-31T00:04:29;18.10;99.90
19803;DHT22;66074;50.764;6.090;2023-07-31T00:06:55;18.00;99.90
19803;DHT22;66074;50.764;6.090;2023-07-31T00:09:20;18.00;99.90
19803;DHT22;66074;50.764;6.090;2023-07-31T00:11:46;18.00;99.90
19803;DHT22;66074;50.764;6.090;2023-07-31T00:14:12;18.10;99.90
19803;DHT22;66074;50.764;6.090;2023-07-31T00:16:37;18.00;99.90
19803;DHT22;66074;50.764;6.090;2023-07-31T00:19:03;18.00;99.90
19803;DHT22;66074;50.764;6.090;2023-07-31T00:21:28;18.00;99.90
19803;DHT22;66074;50.764;6.090;2023-07-31T00:23:54;18.00;99.90
19803;DHT22;66074;50.764;6.090;2023-07-31T00:26:19;18.00;99.90
19803;DHT22;66074;50.764;6.090;2023-07-31T00:28:45;18.00;99.90
19803;DHT22;66074;50.764;6.090;2023-07-31T00:31:11;18.00;99.90
19803;DHT22;66074;50.764;6.090;2023-07-31T00:33:37;18.00;99.90
19803;DHT22;66074;50.764;6.090;2023-07-31T00:36:03;18.00;99.90
19803;DHT22;66074;50.764;6.090;2023-07-31T00:38:28;18.00;99.90
19803;DHT22;66074;50.764;6.090;2023-07-31T00:40:54;17.90;99.90
19803;DHT22;66074;50.764;6.090;2023-07-31T00:43:20;17.90;99.90
19803;DHT22;66074;50.764;6.090;2023-07-31T00:45:45;17.90;99.90
19803;DHT22;66074;50.764;6.090;2023-07-31T00:48:11;18.00;99.90
19803;DHT22;66074;50.764;6.090;2023-07-31T00:50:37;17.90;99.90
19803;DHT22;66074;50.764;6.090;2023-07-31T00:53:04;18.00;99.90
19803;DHT22;66074;50.764;6.090;2023-07-31T00:55:30;18.00;99.90
19803;DHT22;66074;50.764;6.090;2023-07-31T00:57:56;18.00;99.90
19803;DHT22;66074;50.764;6.090;2023-07-31T01:00:22;18.00;99.90
19803;DHT22;66074;50.764;6.090;2023-07-31T01:02:51;18.00;99.90
19803;DHT22;66074;50.764;6.090;2023-07-31T01:05:24;18.00;99.90
19803;DHT22;66074;50.764;6.090;2023-07-31T01:08:29;18.00;99.90
19803;DHT22;66074;50.764;6.090;2023-07-31T01:11:04;18.00;99.90
19803;DHT22;66074;50.764;6.090;2023-07-31T01:13:32;18.00;99.90
19803;DHT22;66074;50.764;6.090;2023-07-31T01:15:58;18.00;99.90
19803;DHT22;66074;50.764;6.090;2023-07-31T01:18:23;18.00;99.90
19803;DHT22;66074;50.764;6.090;2023-07-31T01:21:53;18.00;99.90
19803;DHT22;66074;50.764;6.090;2023-07-31T01:26:43;18.10;99.90
19803;DHT22;66074;50.764;6.090;2023-07-31T01:31:48;18.10;99.90
19803;DHT22;66074;50.764;6.090;2023-07-31T01:34:17;18.10;99.90
19803;DHT22;66074;50.764;6.090;2023-07-31T01:36:43;18.10;99.90
19803;DHT22;66074;50.764;6.090;2023-07-31T01:39:09;18.10;99.90
19803;DHT22;66074;50.764;6.090;2023-07-31T01:41:34;18.10;99.90
19803;DHT22;66074;50.764;6.090;2023-07-31T01:44:00;18.10;99.90
19803;DHT22;66074;50.764;6.090;2023-07-31T01:46:26;18.10;99.90
19803;DHT22;66074;50.764;6.090;2023-07-31T01:48:51;18.10;99.90
19803;DHT22;66074;50.764;6.090;2023-07-31T01:51:17;18.10;99.90
19803;DHT22;66074;50.764;6.090;2023-07-31T01:53:43;18.10;99.90
19803;DHT22;66074;50.764;6.090;2023-07-31T01:56:08;18.10;99.90
19803;DHT22;66074;50.764;6.090;2023-07-31T01:58:34;18.10;99.90
19803;DHT22;66074;50.764;6.090;2023-07-31T02:00:59;18.20;99.90
19803;DHT22;66074;50.764;6.090;2023-07-31T02:03:25;18.10;99.90
19803;DHT22;66074;50.764;6.090;2023-07-31T02:05:51;18.10;99.90
19803;DHT22;66074;50.764;6.090;2023-07-31T02:08:16;18.20;99.90
19803;DHT22;66074;50.764;6.090;2023-07-31T02:10:42;18.20;99.90
19803;DHT22;66074;50.764;6.090;2023-07-31T02:13:08;18.20;99.90
19803;DHT22;66074;50.764;6.090;2023-07-31T02:15:34;18.20;99.90
19803;DHT22;66074;50.764;6.090;2023-07-31T02:18:00;18.20;99.90
19803;DHT22;66074;50.764;6.090;2023-07-31T02:20:26;18.20;99.90
19803;DHT22;66074;50.764;6.090;2023-07-31T02:22:51;18.20;99.90
19803;DHT22;66074;50.764;6.090;2023-07-31T02:25:17;18.20;99.90
19803;DHT22;66074;50.764;6.090;2023-07-31T02:27:42;18.20;99.90
19803;DHT22;66074;50.764;6.090;2023-07-31T02:30:08;18.20;99.90
19803;DHT22;66074;50.764;6.090;2023-07-31T02:32:34;18.20;99.90
19803;DHT22;66074;50.764;6.090;2023-07-31T02:35:00;18.20;99.90
19803;DHT22;66074;50.764;6.090;2023-07-31T02:37:26;18.20;99.90
19803;DHT22;66074;50.764;6.090;2023-07-31T02:39:51;18.20;99.90
19803;DHT22;66074;50.764;6.090;2023-07-31T02:42:17;18.20;99.90
19803;DHT22;66074;50.764;6.090;2023-07-31T02:44:43;18.20;99.90
19803;DHT22;66074;50.764;6.090;2023-07-31T02:47:08;18.20;99.90
19803;DHT22;66074;50.764;6.090;2023-07-31T02:49:34;18.20;99.90
19803;DHT22;66074;50.764;6.090;2023-07-31T02:51:59;18.20;99.90
19803;DHT22;66074;50.764;6.090;2023-07-31T02:54:25;18.20;99.90
19803;DHT22;66074;50.764;6.090;2023-07-31T02:56:51;18.20;99.90
19803;DHT22;66074;50.764;6.090;2023-07-31T02:59:17;18.20;99.90
19803;DHT22;66074;50.764;6.090;2023-07-31T03:01:43;18.20;99.90
19803;DHT22;66074;50.764;6.090;2023-07-31T03:04:09;18.20;99.90
19803;DHT22;66074;50.764;6.090;2023-07-31T03:06:35;18.30;99.90
19803;DHT22;66074;50.764;6.090;2023-07-31T03:09:00;18.20;99.90
19803;DHT22;66074;50.764;6.090;2023-07-31T03:11:26;18.30;99.90
19803;DHT22;66074;50.764;6.090;2023-07-31T03:13:51;18.30;99.90
19803;DHT22;66074;50.764;6.090;2023-07-31T03:16:17;18.30;99.90
19803;DHT22;66074;50.764;6.090;2023-07-31T03:18:43;18.30;99.90
19803;DHT22;66074;50.764;6.090;2023-07-31T03:21:08;18.30;99.90
19803;DHT22;66074;50.764;6.090;2023-07-31T03:23:34;18.30;99.90
19803;DHT22;66074;50.764;6.090;2023-07-31T03:26:01;18.30;99.90
19803;DHT22;66074;50.764;6.090;2023-07-31T03:28:27;18.30;99.90
19803;DHT22;66074;50.764;6.090;2023-07-31T03:30:53;18.30;99.90
19803;DHT22;66074;50.764;6.090;2023-07-31T03:33:19;18.20;99.90
19803;DHT22;66074;50.764;6.090;2023-07-31T03:35:45;18.20;99.90
19803;DHT22;66074;50.764;6.090;2023-07-31T03:38:11;18.20;99.90
19803;DHT22;66074;50.764;6.090;2023-07-31T03:40:36;18.20;99.90
19803;DHT22;66074;50.764;6.090;2023-07-31T03:43:02;18.20;99.90
19803;DHT22;66074;50.764;6.090;2023-07-31T03:45:27;18.30;99.90
19803;DHT22;66074;50.764;6.090;2023-07-31T03:47:53;18.20;99.90
19803;DHT22;66074;50.764;6.090;2023-07-31T03:50:20;18.20;99.90
19803;DHT22;66074;50.764;6.090;2023-07-31T03:52:45;18.20;99.90
19803;DHT22;66074;50.764;6.090;2023-07-31T03:55:11;18.20;99.90
19803;DHT22;66074;50.764;6.090;2023-07-31T03:57:37;18.20;99.90
19803;DHT22;66074;50.764;6.090;2023-07-31T04:00:03;18.20;99.90
19803;DHT22;66074;50.764;6.090;2023-07-31T04:02:29;18.20;99.90
19803;DHT22;66074;50.764;6.090;2023-07-31T04:04:54;18.20;99.90
19803;DHT22;66074;50.764;6.090;2023-07-31T04:07:20;18.20;99.90
19803;DHT22;66074;50.764;6.090;2023-07-31T04:09:45;18.20;99.90
19803;DHT22;66074;50.764;6.090;2023-07-31T04:12:11;18.10;99.90
19803;DHT22;66074;50.764;6.090;2023-07-31T04:14:37;18.20;99.90
19803;DHT22;66074;50.764;6.090;2023-07-31T04:17:02;18.10;99.90
19803;DHT22;66074;50.764;6.090;2023-07-31T04:19:28;18.10;99.90
19803;DHT22;66074;50.764;6.090;2023-07-31T04:21:54;18.10;99.90
19803;DHT22;66074;50.764;6.090;2023-07-31T04:24:19;18.20;99.90
19803;DHT22;66074;50.764;6.090;2023-07-31T04:26:50;18.10;99.90
19803;DHT22;66074;50.764;6.090;2023-07-31T04:29:16;18.10;99.90
19803;DHT22;66074;50.764;6.090;2023-07-31T04:31:41;18.10;99.90
19803;DHT22;66074;50.764;6.090;2023-07-31T04:34:07;18.10;99.90
19803;DHT22;66074;50.764;6.090;2023-07-31T04:36:34;18.10;99.90
19803;DHT22;66074;50.764;6.090;2023-07-31T04:38:59;18.10;99.90
19803;DHT22;66074;50.764;6.090;2023-07-31T04:41:25;18.10;99.90
19803;DHT22;66074;50.764;6.090;2023-07-31T04:43:51;18.10;99.90
19803;DHT22;66074;50.764;6.090;2023-07-31T04:46:16;18.10;99.90
19803;DHT22;66074;50.764;6.090;2023-07-31T04:48:42;18.10;99.90
19803;DHT22;66074;50.764;6.090;2023-07-31T04:51:08;18.20;99.90
19803;DHT22;66074;50.764;6.090;2023-07-31T04:53:37;18.20;99.90
19803;DHT22;66074;50.764;6.090;2023-07-31T04:56:02;18.20;99.90
19803;DHT22;66074;50.764;6.090;2023-07-31T04:58:28;18.30;99.90
19803;DHT22;66074;50.764;6.090;2023-07-31T05:00:54;18.30;99.90
19803;DHT22;66074;50.764;6.090;2023-07-31T05:03:19;18.30;99.90
19803;DHT22;66074;50.764;6.090;2023-07-31T05:05:45;18.30;99.90
19803;DHT22;66074;50.764;6.090;2023-07-31T05:08:11;18.30;99.90
19803;DHT22;66074;50.764;6.090;2023-07-31T05:10:36;18.30;99.90
19803;DHT22;66074;50.764;6.090;2023-07-31T05:13:02;18.30;99.90
19803;DHT22;66074;50.764;6.090;2023-07-31T05:15:28;18.30;99.90
19803;DHT22;66074;50.764;6.090;2023-07-31T05:17:54;18.30;99.90
19803;DHT22;66074;50.764;6.090;2023-07-31T05:20:20;18.30;99.90
19803;DHT22;66074;50.764;6.090;2023-07-31T05:22:45;18.20;99.90
19803;DHT22;66074;50.764;6.090;2023-07-31T05:25:11;18.20;99.90
19803;DHT22;66074;50.764;6.090;2023-07-31T05:27:36;18.20;99.90
19803;DHT22;66074;50.764;6.090;2023-07-31T05:30:02;18.20;99.90
19803;DHT22;66074;50.764;6.090;2023-07-31T05:32:28;18.20;99.90
19803;DHT22;66074;50.764;6.090;2023-07-31T05:34:54;18.20;99.90
19803;DHT22;66074;50.764;6.090;2023-07-31T05:37:20;18.20;99.90
19803;DHT22;66074;50.764;6.090;2023-07-31T05:39:45;18.20;99.90
19803;DHT22;66074;50.764;6.090;2023-07-31T05:42:11;18.10;99.90
19803;DHT22;66074;50.764;6.090;2023-07-31T05:44:37;18.10;99.90
19803;DHT22;66074;50.764;6.090;2023-07-31T05:47:02;18.10;99.90
19803;DHT22;66074;50.764;6.090;2023-07-31T05:49:28;18.10;99.90
19803;DHT22;66074;50.764;6.090;2023-07-31T05:51:54;18.10;99.90
19803;DHT22;66074;50.764;6.090;2023-07-31T05:54:20;18.10;99.90
19803;DHT22;66074;50.764;6.090;2023-07-31T05:56:45;18.10;99.90
19803;DHT22;66074;50.764;6.090;2023-07-31T05:59:12;18.10;99.90
19803;DHT22;66074;50.764;6.090;2023-07-31T06:01:38;18.20;99.90
19803;DHT22;66074;50.764;6.090;2023-07-31T06:04:04;18.20;99.90
19803;DHT22;66074;50.764;6.090;2023-07-31T06:06:29;18.20;99.90
19803;DHT22;66074;50.764;6.090;2023-07-31T06:08:55;18.20;99.90
19803;DHT22;66074;50.764;6.090;2023-07-31T06:11:21;18.30;99.90
19803;DHT22;66074;50.764;6.090;2023-07-31T06:13:46;18.30;99.90
19803;DHT22;66074;50.764;6.090;2023-07-31T06:16:13;18.30;99.90
19803;DHT22;66074;50.764;6.090;2023-07-31T06:18:40;18.30;99.90
19803;DHT22;66074;50.764;6.090;2023-07-31T06:21:06;18.40;99.90
19803;DHT22;66074;50.764;6.090;2023-07-31T06:23:32;18.40;99.90
19803;DHT22;66074;50.764;6.090;2023-07-31T06:25:57;18.40;99.90
19803;DHT22;66074;50.764;6.090;2023-07-31T06:28:30;18.50;99.90
19803;DHT22;66074;50.764;6.090;2023-07-31T06:30:56;18.40;99.90
19803;DHT22;66074;50.764;6.090;2023-07-31T06:33:21;18.50;99.90
19803;DHT22;66074;50.764;6.090;2023-07-31T06:35:47;18.60;99.90
19803;DHT22;66074;50.764;6.090;2023-07-31T06:38:12;18.70;99.90
19803;DHT22;66074;50.764;6.090;2023-07-31T06:40:38;18.70;99.90
19803;DHT22;66074;50.764;6.090;2023-07-31T06:43:04;18.70;99.90
19803;DHT22;66074;50.764;6.090;2023-07-31T06:45:34;18.70;99.90
19803;DHT22;66074;50.764;6.090;2023-07-31T06:48:00;18.80;99.90
19803;DHT22;66074;50.764;6.090;2023-07-31T06:50:33;18.80;99.90
19803;DHT22;66074;50.764;6.090;2023-07-31T06:52:59;18.90;99.90
19803;DHT22;66074;50.764;6.090;2023-07-31T06:55:25;18.80;99.90
19803;DHT22;66074;50.764;6.090;2023-07-31T06:57:53;18.80;99.90
19803;DHT22;66074;50.764;6.090;2023-07-31T07:00:20;18.80;99.90
19803;DHT22;66074;50.764;6.090;2023-07-31T07:02:45;18.80;99.90
19803;DHT22;66074;50.764;6.090;2023-07-31T07:05:14;18.70;99.90
19803;DHT22;66074;50.764;6.090;2023-07-31T07:07:40;18.70;99.90
19803;DHT22;66074;50.764;6.090;2023-07-31T07:10:07;18.70;99.90
19803;DHT22;66074;50.764;6.090;2023-07-31T07:12:33;18.80;99.90
19803;DHT22;66074;50.764;6.090;2023-07-31T07:14:59;18.70;99.90
19803;DHT22;66074;50.764;6.090;2023-07-31T07:17:26;18.70;99.90
19803;DHT22;66074;50.764;6.090;2023-07-31T07:19:51;18.70;99.90
19803;DHT22;66074;50.764;6.090;2023-07-31T07:22:17;18.60;99.90
19803;DHT22;66074;50.764;6.090;2023-07-31T07:24:43;18.70;99.90
19803;DHT22;66074;50.764;6.090;2023-07-31T07:27:09;18.80;99.90
19803;DHT22;66074;50.764;6.090;2023-07-31T07:29:35;18.80;99.90
19803;DHT22;66074;50.764;6.090;2023-07-31T07:32:00;18.80;99.90
19803;DHT22;66074;50.764;6.090;2023-07-31T07:34:27;18.80;99.90
19803;DHT22;66074;50.764;6.090;2023-07-31T07:36:54;18.80;99.90
19803;DHT22;66074;50.764;6.090;2023-07-31T07:39:19;18.70;99.90
19803;DHT22;66074;50.764;6.090;2023-07-31T07:41:46;18.70;99.90
19803;DHT22;66074;50.764;6.090;2023-07-31T07:44:12;18.70;99.90
19803;DHT22;66074;50.764;6.090;2023-07-31T07:46:37;18.80;99.90
19803;DHT22;66074;50.764;6.090;2023-07-31T07:49:03;18.90;99.90
19803;DHT22;66074;50.764;6.090;2023-07-31T07:51:29;18.90;99.90
19803;DHT22;66074;50.764;6.090;2023-07-31T07:53:56;19.00;99.90
19803;DHT22;66074;50.764;6.090;2023-07-31T07:56:22;19.00;99.90
19803;DHT22;66074;50.764;6.090;2023-07-31T07:58:49;19.00;99.90
19803;DHT22;66074;50.764;6.090;2023-07-31T08:01:15;19.00;99.90
19803;DHT22;66074;50.764;6.090;2023-07-31T08:03:41;19.00;99.90
19803;DHT22;66074;50.764;6.090;2023-07-31T08:06:07;19.00;99.90
19803;DHT22;66074;50.764;6.090;2023-07-31T08:08:35;19.00;99.90
19803;DHT22;66074;50.764;6.090;2023-07-31T08:11:00;19.10;99.90
19803;DHT22;66074;50.764;6.090;2023-07-31T08:13:26;19.20;99.90
19803;DHT22;66074;50.764;6.090;2023-07-31T08:15:52;19.30;99.90
19803;DHT22;66074;50.764;6.090;2023-07-31T08:18:17;19.30;99.90
19803;DHT22;66074;50.764;6.090;2023-07-31T08:20:43;19.30;99.60
19803;DHT22;66074;50.764;6.090;2023-07-31T08:23:09;19.30;99.70
19803;DHT22;66074;50.764;6.090;2023-07-31T08:25:37;19.30;99.90
19803;DHT22;66074;50.764;6.090;2023-07-31T08:28:04;19.30;99.50
19803;DHT22;66074;50.764;6.090;2023-07-31T08:30:31;19.20;99.80
19803;DHT22;66074;50.764;6.090;2023-07-31T08:32:58;19.20;99.70
19803;DHT22;66074;50.764;6.090;2023-07-31T08:35:25;19.20;99.40
19803;DHT22;66074;50.764;6.090;2023-07-31T08:37:51;19.20;99.40
19803;DHT22;66074;50.764;6.090;2023-07-31T08:40:16;19.20;99.10
19803;DHT22;66074;50.764;6.090;2023-07-31T08:42:44;19.30;99.30
19803;DHT22;66074;50.764;6.090;2023-07-31T08:45:14;19.30;99.40
19803;DHT22;66074;50.764;6.090;2023-07-31T08:47:44;19.30;99.20
19803;DHT22;66074;50.764;6.090;2023-07-31T08:50:12;19.40;99.10
19803;DHT22;66074;50.764;6.090;2023-07-31T08:52:38;19.50;99.00
19803;DHT22;66074;50.764;6.090;2023-07-31T08:55:04;19.50;98.90
19803;DHT22;66074;50.764;6.090;2023-07-31T08:57:30;19.50;98.90
19803;DHT22;66074;50.764;6.090;2023-07-31T08:59:57;19.60;99.00
19803;DHT22;66074;50.764;6.090;2023-07-31T09:02:24;19.60;98.90
19803;DHT22;66074;50.764;6.090;2023-07-31T09:04:51;19.70;98.90
19803;DHT22;66074;50.764;6.090;2023-07-31T09:07:17;19.70;98.70
19803;DHT22;66074;50.764;6.090;2023-07-31T09:09:43;19.70;98.60
19803;DHT22;66074;50.764;6.090;2023-07-31T09:12:08;19.70;98.60
19803;DHT22;66074;50.764;6.090;2023-07-31T09:14:35;19.90;98.70
19803;DHT22;66074;50.764;6.090;2023-07-31T09:17:01;19.90;98.20
19803;DHT22;66074;50.764;6.090;2023-07-31T09:19:33;20.00;98.60
19803;DHT22;66074;50.764;6.090;2023-07-31T09:22:00;20.10;98.60
19803;DHT22;66074;50.764;6.090;2023-07-31T09:24:30;20.20;98.30
19803;DHT22;66074;50.764;6.090;2023-07-31T09:26:57;20.30;98.10
19803;DHT22;66074;50.764;6.090;2023-07-31T09:29:24;20.30;98.20
19803;DHT22;66074;50.764;6.090;2023-07-31T09:31:50;20.40;97.20
19803;DHT22;66074;50.764;6.090;2023-07-31T09:34:16;20.40;98.00
19803;DHT22;66074;50.764;6.090;2023-07-31T09:36:42;20.40;97.50
19803;DHT22;66074;50.764;6.090;2023-07-31T09:39:10;20.40;97.80
19803;DHT22;66074;50.764;6.090;2023-07-31T09:41:40;20.60;97.70
19803;DHT22;66074;50.764;6.090;2023-07-31T09:44:06;20.60;97.40
19803;DHT22;66074;50.764;6.090;2023-07-31T09:46:35;20.70;97.60
19803;DHT22;66074;50.764;6.090;2023-07-31T09:49:11;20.70;97.60
19803;DHT22;66074;50.764;6.090;2023-07-31T09:51:39;20.60;97.70
19803;DHT22;66074;50.764;6.090;2023-07-31T09:54:16;20.60;97.90
19803;DHT22;66074;50.764;6.090;2023-07-31T09:56:46;20.60;97.90
19803;DHT22;66074;50.764;6.090;2023-07-31T09:59:14;20.50;98.20
19803;DHT22;66074;50.764;6.090;2023-07-31T10:01:41;20.50;98.10
19803;DHT22;66074;50.764;6.090;2023-07-31T10:04:11;20.50;98.10
19803;DHT22;66074;50.764;6.090;2023-07-31T10:06:38;20.50;98.20
19803;DHT22;66074;50.764;6.090;2023-07-31T10:09:09;20.40;98.00
19803;DHT22;66074;50.764;6.090;2023-07-31T10:11:43;20.40;98.40
19803;DHT22;66074;50.764;6.090;2023-07-31T10:14:11;20.40;98.70
19803;DHT22;66074;50.764;6.090;2023-07-31T10:16:38;20.30;98.40
19803;DHT22;66074;50.764;6.090;2023-07-31T10:19:05;20.20;98.50
19803;DHT22;66074;50.764;6.090;2023-07-31T10:21:32;20.10;98.70
19803;DHT22;66074;50.764;6.090;2023-07-31T10:24:03;20.00;98.60
19803;DHT22;66074;50.764;6.090;2023-07-31T10:26:31;20.00;98.70
19803;DHT22;66074;50.764;6.090;2023-07-31T10:28:58;19.90;98.70
19803;DHT22;66074;50.764;6.090;2023-07-31T10:31:24;19.80;98.80
19803;DHT22;66074;50.764;6.090;2023-07-31T10:33:51;19.70;98.90
19803;DHT22;66074;50.764;6.090;2023-07-31T10:36:19;19.60;99.30
19803;DHT22;66074;50.764;6.090;2023-07-31T10:38:46;19.50;99.10
19803;DHT22;66074;50.764;6.090;2023-07-31T10:41:13;19.50;99.20
19803;DHT22;66074;50.764;6.090;2023-07-31T10:43:39;19.50;99.30
19803;DHT22;66074;50.764;6.090;2023-07-31T10:46:14;19.50;99.60
19803;DHT22;66074;50.764;6.090;2023-07-31T10:48:41;19.50;99.70
19803;DHT22;66074;50.764;6.090;2023-07-31T10:51:11;19.60;99.70
19803;DHT22;66074;50.764;6.090;2023-07-31T10:53:38;19.80;99.80
19803;DHT22;66074;50.764;6.090;2023-07-31T10:56:09;19.90;99.80
19803;DHT22;66074;50.764;6.090;2023-07-31T10:58:37;20.10;99.80
19803;DHT22;66074;50.764;6.090;2023-07-31T11:01:04;20.10;99.60
19803;DHT22;66074;50.764;6.090;2023-07-31T11:03:46;20.10;99.60
19803;DHT22;66074;50.764;6.090;2023-07-31T11:06:12;20.10;99.40
19803;DHT22;66074;50.764;6.090;2023-07-31T11:08:45;20.10;99.50
19803;DHT22;66074;50.764;6.090;2023-07-31T11:11:13;20.10;99.50
19803;DHT22;66074;50.764;6.090;2023-07-31T11:13:45;20.10;99.40
19803;DHT22;66074;50.764;6.090;2023-07-31T11:16:13;20.10;99.50
19803;DHT22;66074;50.764;6.090;2023-07-31T11:18:42;20.10;99.50
19803;DHT22;66074;50.764;6.090;2023-07-31T11:21:11;20.10;99.40
19803;DHT22;66074;50.764;6.090;2023-07-31T11:23:37;20.10;99.60
19803;DHT22;66074;50.764;6.090;2023-07-31T11:26:05;20.00;99.30
19803;DHT22;66074;50.764;6.090;2023-07-31T11:28:33;20.00;99.40
19803;DHT22;66074;50.764;6.090;2023-07-31T11:30:59;20.00;99.30
19803;DHT22;66074;50.764;6.090;2023-07-31T11:33:25;20.10;99.50
19803;DHT22;66074;50.764;6.090;2023-07-31T11:35:51;20.20;99.20
19803;DHT22;66074;50.764;6.090;2023-07-31T11:40:53;20.20;99.20
19803;DHT22;66074;50.764;6.090;2023-07-31T11:43:20;20.20;99.20
19803;DHT22;66074;50.764;6.090;2023-07-31T11:45:48;20.20;99.10
19803;DHT22;66074;50.764;6.090;2023-07-31T11:48:28;20.10;99.20
19803;DHT22;66074;50.764;6.090;2023-07-31T11:50:57;20.10;99.00
19803;DHT22;66074;50.764;6.090;2023-07-31T11:53:43;20.00;98.90
19803;DHT22;66074;50.764;6.090;2023-07-31T11:56:11;19.90;99.10
19803;DHT22;66074;50.764;6.090;2023-07-31T11:58:39;19.90;99.10
19803;DHT22;66074;50.764;6.090;2023-07-31T12:01:05;19.90;99.10
19803;DHT22;66074;50.764;6.090;2023-07-31T12:03:32;19.90;99.20
19803;DHT22;66074;50.764;6.090;2023-07-31T12:05:59;19.90;99.30
19803;DHT22;66074;50.764;6.090;2023-07-31T12:08:25;20.00;99.30
19803;DHT22;66074;50.764;6.090;2023-07-31T12:10:52;20.10;99.30
19803;DHT22;66074;50.764;6.090;2023-07-31T12:13:25;20.20;99.20
19803;DHT22;66074;50.764;6.090;2023-07-31T12:15:56;20.10;99.10
19803;DHT22;66074;50.764;6.090;2023-07-31T12:18:23;20.10;99.00
19803;DHT22;66074;50.764;6.090;2023-07-31T12:20:54;20.10;98.90
19803;DHT22;66074;50.764;6.090;2023-07-31T12:23:24;20.10;99.00
19803;DHT22;66074;50.764;6.090;2023-07-31T12:26:12;20.20;99.00
19803;DHT22;66074;50.764;6.090;2023-07-31T12:28:45;20.30;99.00
19803;DHT22;66074;50.764;6.090;2023-07-31T12:31:13;20.40;98.90
19803;DHT22;66074;50.764;6.090;2023-07-31T12:33:40;20.40;98.80
19803;DHT22;66074;50.764;6.090;2023-07-31T12:36:14;20.40;98.70
19803;DHT22;66074;50.764;6.090;2023-07-31T12:38:41;20.40;98.70
19803;DHT22;66074;50.764;6.090;2023-07-31T12:41:07;20.40;98.70
19803;DHT22;66074;50.764;6.090;2023-07-31T12:43:37;20.40;98.70
19803;DHT22;66074;50.764;6.090;2023-07-31T12:46:04;20.40;98.50
19803;DHT22;66074;50.764;6.090;2023-07-31T12:48:31;20.50;98.70
19803;DHT22;66074;50.764;6.090;2023-07-31T12:50:57;20.50;98.50
19803;DHT22;66074;50.764;6.090;2023-07-31T12:53:23;20.60;98.50
19803;DHT22;66074;50.764;6.090;2023-07-31T12:55:48;20.70;98.50
19803;DHT22;66074;50.764;6.090;2023-07-31T12:58:14;20.90;98.40
19803;DHT22;66074;50.764;6.090;2023-07-31T13:00:40;21.00;98.30
19803;DHT22;66074;50.764;6.090;2023-07-31T13:03:05;21.10;98.00
19803;DHT22;66074;50.764;6.090;2023-07-31T13:05:31;21.10;98.30
19803;DHT22;66074;50.764;6.090;2023-07-31T13:07:57;21.20;97.90
19803;DHT22;66074;50.764;6.090;2023-07-31T13:10:23;21.20;97.90
19803;DHT22;66074;50.764;6.090;2023-07-31T13:12:49;21.40;97.80
19803;DHT22;66074;50.764;6.090;2023-07-31T13:15:15;21.50;97.50
19803;DHT22;66074;50.764;6.090;2023-07-31T13:17:41;21.70;97.40
19803;DHT22;66074;50.764;6.090;2023-07-31T13:20:07;22.20;97.20
19803;DHT22;66074;50.764;6.090;2023-07-31T13:22:33;22.80;96.40
19803;DHT22;66074;50.764;6.090;2023-07-31T13:24:58;23.60;97.50
19803;DHT22;66074;50.764;6.090;2023-07-31T13:27:24;23.80;96.10
19803;DHT22;66074;50.764;6.090;2023-07-31T13:29:50;23.50;95.20
19803;DHT22;66074;50.764;6.090;2023-07-31T13:32:17;23.00;95.20
19803;DHT22;66074;50.764;6.090;2023-07-31T13:34:44;22.70;95.60
19803;DHT22;66074;50.764;6.090;2023-07-31T13:37:10;22.40;95.20
19803;DHT22;66074;50.764;6.090;2023-07-31T13:39:35;22.10;95.40
19803;DHT22;66074;50.764;6.090;2023-07-31T13:42:03;22.00;95.40
19803;DHT22;66074;50.764;6.090;2023-07-31T13:44:29;22.10;95.70
19803;DHT22;66074;50.764;6.090;2023-07-31T13:46:54;22.20;95.70
19803;DHT22;66074;50.764;6.090;2023-07-31T13:49:20;22.20;95.40
19803;DHT22;66074;50.764;6.090;2023-07-31T13:51:45;22.10;95.20
19803;DHT22;66074;50.764;6.090;2023-07-31T13:54:11;22.10;95.20
19803;DHT22;66074;50.764;6.090;2023-07-31T13:56:37;22.00;95.30
19803;DHT22;66074;50.764;6.090;2023-07-31T13:59:03;21.90;95.10
19803;DHT22;66074;50.764;6.090;2023-07-31T14:01:29;21.90;95.10
19803;DHT22;66074;50.764;6.090;2023-07-31T14:03:55;21.70;95.20
19803;DHT22;66074;50.764;6.090;2023-07-31T14:06:20;21.60;95.20
19803;DHT22;66074;50.764;6.090;2023-07-31T14:08:46;21.50;95.20
19803;DHT22;66074;50.764;6.090;2023-07-31T14:11:12;21.40;95.20
19803;DHT22;66074;50.764;6.090;2023-07-31T14:13:37;21.30;95.30
19803;DHT22;66074;50.764;6.090;2023-07-31T14:16:03;21.30;95.50
19803;DHT22;66074;50.764;6.090;2023-07-31T14:18:29;21.30;95.50
19803;DHT22;66074;50.764;6.090;2023-07-31T14:20:55;21.30;95.40
19803;DHT22;66074;50.764;6.090;2023-07-31T14:23:20;21.40;95.50
19803;DHT22;66074;50.764;6.090;2023-07-31T14:25:47;21.40;95.40
19803;DHT22;66074;50.764;6.090;2023-07-31T14:28:12;21.40;95.70
19803;DHT22;66074;50.764;6.090;2023-07-31T14:30:38;21.40;95.30
19803;DHT22;66074;50.764;6.090;2023-07-31T14:33:04;21.40;95.40
19803;DHT22;66074;50.764;6.090;2023-07-31T14:35:29;21.50;95.30
19803;DHT22;66074;50.764;6.090;2023-07-31T14:37:55;21.60;95.40
19803;DHT22;66074;50.764;6.090;2023-07-31T14:40:21;21.60;95.40
19803;DHT22;66074;50.764;6.090;2023-07-31T14:42:46;21.50;95.30
19803;DHT22;66074;50.764;6.090;2023-07-31T14:45:12;21.40;95.20
19803;DHT22;66074;50.764;6.090;2023-07-31T14:47:37;21.40;95.30
19803;DHT22;66074;50.764;6.090;2023-07-31T14:50:04;21.30;95.30
19803;DHT22;66074;50.764;6.090;2023-07-31T14:52:29;21.20;95.30
19803;DHT22;66074;50.764;6.090;2023-07-31T14:54:55;21.10;95.30
19803;DHT22;66074;50.764;6.090;2023-07-31T14:57:21;21.10;95.40
19803;DHT22;66074;50.764;6.090;2023-07-31T14:59:47;21.00;95.50
19803;DHT22;66074;50.764;6.090;2023-07-31T15:02:13;20.90;95.40
19803;DHT22;66074;50.764;6.090;2023-07-31T15:04:39;20.90;95.60
19803;DHT22;66074;50.764;6.090;2023-07-31T15:07:04;20.90;95.80
19803;DHT22;66074;50.764;6.090;2023-07-31T15:09:30;20.80;96.00
19803;DHT22;66074;50.764;6.090;2023-07-31T15:11:56;20.80;95.90
19803;DHT22;66074;50.764;6.090;2023-07-31T15:14:23;20.90;96.20
19803;DHT22;66074;50.764;6.090;2023-07-31T15:16:49;20.80;96.20
19803;DHT22;66074;50.764;6.090;2023-07-31T15:19:15;20.80;96.20
19803;DHT22;66074;50.764;6.090;2023-07-31T15:21:41;20.70;96.30
19803;DHT22;66074;50.764;6.090;2023-07-31T15:24:06;20.70;96.50
19803;DHT22;66074;50.764;6.090;2023-07-31T15:26:32;20.60;96.70
19803;DHT22;66074;50.764;6.090;2023-07-31T15:29:05;20.50;96.70
19803;DHT22;66074;50.764;6.090;2023-07-31T15:31:35;20.40;96.90
19803;DHT22;66074;50.764;6.090;2023-07-31T15:34:01;20.30;97.10
19803;DHT22;66074;50.764;6.090;2023-07-31T15:36:26;20.20;97.30